Time;durP1;ratioP1;P1;durP2;ratioP2;P2;SDS_P1;SDS_P2;PMS_P1;PMS_P2;Temp;Humidity;BMP_temperature;BMP_pressure;BME280_temperature;BME280_humidity;BME280_pressure;Samples;Min_cycle;Max_cycle;Signal;HPM_P1;HPM_P2
2022/06/25 00:01:28;;;;;;;5.10;4.60;;;18.20;99.90;;;;;;5089355;28;20469;-77
2022/06/25 00:03:54;;;;;;;5.28;4.78;;;18.30;99.90;;;;;;5089754;28;20048;-78
2022/06/25 00:06:21;;;;;;;5.63;5.13;;;18.30;99.90;;;;;;5089269;28;20036;-78
2022/06/25 00:08:48;;;;;;;6.43;4.82;;;18.30;99.90;;;;;;5089200;28;20047;-78
2022/06/25 00:14:11;;;;;;;6.47;5.00;;;18.30;99.90;;;;;;5088859;28;20446;-78
2022/06/25 00:16:37;;;;;;;6.82;5.43;;;18.20;99.90;;;;;;5089198;28;20457;-77
2022/06/25 00:19:03;;;;;;;7.28;5.65;;;18.20;99.90;;;;;;5084010;28;20472;-77
2022/06/25 00:21:30;;;;;;;6.72;5.47;;;18.10;99.90;;;;;;5084323;28;20048;-76
2022/06/25 00:23:55;;;;;;;7.63;5.55;;;18.10;99.90;;;;;;5089333;28;20136;-78
2022/06/25 00:26:22;;;;;;;6.50;5.72;;;18.20;99.90;;;;;;5089116;28;20488;-77
2022/06/25 00:28:47;;;;;;;6.93;6.10;;;18.10;99.90;;;;;;5088466;28;20372;-76
2022/06/25 00:31:13;;;;;;;8.27;6.53;;;18.20;99.90;;;;;;5088759;28;20051;-76
2022/06/25 00:33:39;;;;;;;6.65;5.95;;;18.20;99.90;;;;;;5088590;28;20507;-76
2022/06/25 00:36:04;;;;;;;7.00;6.00;;;18.20;99.90;;;;;;5088869;28;20041;-77
2022/06/25 00:38:30;;;;;;;7.47;6.78;;;18.20;99.90;;;;;;5088788;28;20453;-77
2022/06/25 00:40:56;;;;;;;7.72;6.53;;;18.20;99.90;;;;;;5070651;28;20109;-76
2022/06/25 00:43:21;;;;;;;6.97;6.28;;;18.10;99.90;;;;;;5088519;28;20058;-77
2022/06/25 00:45:47;;;;;;;8.65;6.40;;;18.10;99.90;;;;;;5088643;28;20129;-78
2022/06/25 00:48:13;;;;;;;7.30;6.60;;;18.00;99.90;;;;;;5088775;28;20044;-77
2022/06/25 00:50:39;;;;;;;7.63;6.88;;;18.00;99.90;;;;;;5088726;28;20048;-77
2022/06/25 00:53:05;;;;;;;8.30;7.18;;;18.00;99.90;;;;;;5088285;28;20055;-78
2022/06/25 00:55:31;;;;;;;7.10;6.40;;;17.90;99.90;;;;;;5088677;28;20502;-78
2022/06/25 00:58:01;;;;;;;7.40;6.55;;;17.90;99.90;;;;;;5088563;28;20512;-78
2022/06/25 01:00:27;;;;;;;7.03;6.35;;;17.80;99.90;;;;;;5088617;28;20036;-77
2022/06/25 01:02:53;;;;;;;7.88;6.32;;;17.80;99.90;;;;;;5088755;28;20392;-77
2022/06/25 01:05:19;;;;;;;7.35;6.60;;;17.80;99.90;;;;;;5088440;28;20058;-77
2022/06/25 01:07:48;;;;;;;7.90;7.10;;;17.70;99.90;;;;;;5088584;28;20044;-77
2022/06/25 01:10:15;;;;;;;7.70;6.90;;;17.80;99.90;;;;;;5084382;28;20056;-77
2022/06/25 01:12:42;;;;;;;7.80;7.03;;;17.70;99.90;;;;;;5087919;28;20119;-77
2022/06/25 01:15:18;;;;;;;7.78;6.88;;;17.70;99.90;;;;;;5084697;28;20080;-78
2022/06/25 01:17:46;;;;;;;9.52;6.75;;;17.70;99.90;;;;;;5088632;28;20158;-77
2022/06/25 01:20:14;;;;;;;7.93;7.05;;;17.70;99.90;;;;;;5088512;28;20114;-77
2022/06/25 01:22:39;;;;;;;8.88;7.20;;;17.70;99.90;;;;;;5088547;28;20040;-78
2022/06/25 01:25:09;;;;;;;9.10;7.45;;;17.70;99.90;;;;;;5091380;28;20054;-78
2022/06/25 01:27:36;;;;;;;8.82;7.32;;;17.70;99.90;;;;;;5091764;28;20526;-78
2022/06/25 01:30:04;;;;;;;7.97;6.97;;;17.70;99.90;;;;;;5089095;28;20055;-77
2022/06/25 01:32:30;;;;;;;7.93;6.60;;;17.70;99.90;;;;;;5085094;28;20125;-76
2022/06/25 01:34:55;;;;;;;7.80;6.82;;;17.70;99.90;;;;;;5071457;28;20073;-76
2022/06/25 01:37:21;;;;;;;8.07;7.28;;;17.70;99.90;;;;;;5086694;28;20044;-77
2022/06/25 01:39:55;;;;;;;8.80;7.90;;;17.80;99.90;;;;;;5088282;28;20052;-77
2022/06/25 01:45:06;;;;;;;9.13;7.63;;;17.80;99.90;;;;;;5092119;28;20055;-78
2022/06/25 01:47:32;;;;;;;8.10;7.30;;;17.80;99.90;;;;;;5091893;28;20044;-78
2022/06/25 01:49:58;;;;;;;8.50;6.95;;;17.80;99.90;;;;;;5088174;28;20054;-77
2022/06/25 01:52:23;;;;;;;7.72;6.97;;;17.80;99.90;;;;;;5091415;28;20046;-77
2022/06/25 01:54:49;;;;;;;10.57;7.82;;;17.70;99.90;;;;;;5091633;28;20048;-77
2022/06/25 01:57:15;;;;;;;8.63;7.38;;;17.80;99.90;;;;;;5091690;28;20044;-77
2022/06/25 01:59:40;;;;;;;10.15;7.90;;;17.70;99.90;;;;;;5092089;28;20063;-77
2022/06/25 02:02:06;;;;;;;8.40;7.47;;;17.70;99.90;;;;;;5090214;28;20039;-78
2022/06/25 02:04:32;;;;;;;8.80;7.90;;;17.70;99.90;;;;;;5073860;28;20052;-78
2022/06/25 02:06:57;;;;;;;8.40;7.60;;;17.60;99.90;;;;;;5073668;28;20051;-78
2022/06/25 02:09:23;;;;;;;9.23;7.97;;;17.60;99.90;;;;;;5091599;28;20056;-77
2022/06/25 02:11:49;;;;;;;9.02;7.60;;;17.50;99.90;;;;;;5091455;28;20324;-78
2022/06/25 02:14:15;;;;;;;10.43;7.75;;;17.50;99.90;;;;;;5090842;28;20062;-78
2022/06/25 02:16:41;;;;;;;8.15;7.30;;;17.40;99.90;;;;;;5091591;28;20130;-78
2022/06/25 02:19:08;;;;;;;8.43;7.47;;;17.40;99.90;;;;;;5089749;28;20066;-77
2022/06/25 02:21:34;;;;;;;8.77;7.88;;;17.30;99.90;;;;;;5091201;28;20040;-78
2022/06/25 02:24:00;;;;;;;8.55;7.65;;;17.30;99.90;;;;;;5091315;28;20032;-77
2022/06/25 02:26:26;;;;;;;9.27;7.90;;;17.20;99.90;;;;;;5073178;28;20051;-77
2022/06/25 02:28:51;;;;;;;8.95;8.05;;;17.20;99.90;;;;;;5073040;28;20079;-78
2022/06/25 02:31:18;;;;;;;9.15;8.15;;;17.10;99.90;;;;;;5090970;28;20048;-77
2022/06/25 02:33:43;;;;;;;9.52;8.35;;;17.10;99.90;;;;;;5091013;28;20119;-78
2022/06/25 02:36:09;;;;;;;9.77;8.77;;;17.10;99.90;;;;;;5091015;28;20184;-77
2022/06/25 02:38:35;;;;;;;9.48;8.40;;;17.10;99.90;;;;;;5091182;28;20044;-77
2022/06/25 02:41:00;;;;;;;11.38;8.73;;;17.10;99.90;;;;;;5072737;28;20044;-77
2022/06/25 02:43:26;;;;;;;10.63;8.93;;;17.10;99.90;;;;;;5090511;28;20051;-78
2022/06/25 02:45:52;;;;;;;9.65;8.65;;;17.10;99.90;;;;;;5090710;28;20046;-77
2022/06/25 02:48:17;;;;;;;10.02;8.80;;;17.10;99.90;;;;;;5090577;28;20048;-76
2022/06/25 02:50:43;;;;;;;10.48;8.82;;;17.10;99.90;;;;;;5090583;28;20116;-77
2022/06/25 02:53:09;;;;;;;10.27;9.20;;;17.10;99.90;;;;;;5090595;28;20052;-76
2022/06/25 03:01:03;;;;;;;9.38;8.27;;;17.00;99.90;;;;;;5090799;28;20059;-76
2022/06/25 03:03:29;;;;;;;8.75;7.85;;;17.00;99.90;;;;;;5067915;28;20058;-77
2022/06/25 03:05:56;;;;;;;10.88;8.43;;;17.00;99.90;;;;;;5090404;28;20035;-76
2022/06/25 03:08:22;;;;;;;9.30;8.30;;;17.00;99.90;;;;;;5090709;28;20090;-76
2022/06/25 03:10:48;;;;;;;9.30;8.15;;;17.10;99.90;;;;;;5090526;28;20509;-77
2022/06/25 03:13:13;;;;;;;8.98;8.02;;;17.10;99.90;;;;;;5089759;28;20527;-77
2022/06/25 03:15:39;;;;;;;8.20;7.38;;;17.10;99.90;;;;;;5090266;28;20120;-79
2022/06/25 03:18:05;;;;;;;9.90;8.00;;;17.10;99.90;;;;;;5084241;28;20396;-77
2022/06/25 03:20:31;;;;;;;8.98;8.07;;;17.00;99.90;;;;;;5084575;28;20050;-77
2022/06/25 03:22:57;;;;;;;10.05;8.27;;;17.00;99.90;;;;;;5090203;28;20044;-77
2022/06/25 03:25:23;;;;;;;8.68;7.78;;;17.00;99.90;;;;;;5090017;28;20044;-76
2022/06/25 03:27:49;;;;;;;8.45;7.55;;;17.00;99.90;;;;;;5089959;28;20115;-77
2022/06/25 03:30:15;;;;;;;8.70;7.68;;;17.00;99.90;;;;;;5089613;28;20048;-78
2022/06/25 03:32:40;;;;;;;10.63;7.85;;;17.00;99.90;;;;;;5090005;28;20525;-77
2022/06/25 03:35:06;;;;;;;8.75;7.85;;;17.00;99.90;;;;;;5089718;28;20046;-76
2022/06/25 03:37:32;;;;;;;9.00;7.60;;;16.90;99.90;;;;;;5071796;28;20064;-76
2022/06/25 03:39:58;;;;;;;8.52;7.65;;;16.90;99.90;;;;;;5089770;28;20048;-76
2022/06/25 03:42:24;;;;;;;9.40;7.38;;;17.00;99.90;;;;;;5087904;28;20039;-78
2022/06/25 03:44:49;;;;;;;8.52;7.63;;;17.00;99.90;;;;;;5089315;28;20047;-76
2022/06/25 03:47:15;;;;;;;7.72;6.28;;;16.90;99.90;;;;;;5071459;28;20178;-75
2022/06/25 03:49:41;;;;;;;10.98;7.50;;;17.00;99.90;;;;;;5071618;28;20048;-76
2022/06/25 03:52:07;;;;;;;8.52;7.15;;;17.00;99.90;;;;;;5089476;28;20040;-78
2022/06/25 03:54:32;;;;;;;8.18;6.97;;;17.10;99.90;;;;;;5089363;28;20054;-77
2022/06/25 03:56:58;;;;;;;9.25;6.78;;;17.10;99.90;;;;;;5089554;28;20036;-77
2022/06/25 03:59:24;;;;;;;7.47;6.53;;;17.10;99.90;;;;;;5088137;28;20534;-78
2022/06/25 04:01:49;;;;;;;8.30;6.63;;;17.10;99.90;;;;;;5081961;28;20168;-77
2022/06/25 04:04:15;;;;;;;9.50;7.00;;;17.10;99.90;;;;;;5082033;28;20101;-75
2022/06/25 04:06:41;;;;;;;8.27;6.70;;;17.10;99.90;;;;;;5082541;28;20051;-77
2022/06/25 04:09:07;;;;;;;8.40;6.20;;;17.10;99.90;;;;;;5088791;28;21054;-77
2022/06/25 04:11:33;;;;;;;8.40;6.90;;;17.10;99.90;;;;;;5089131;28;20075;-76
2022/06/25 04:13:59;;;;;;;7.65;6.57;;;17.10;99.90;;;;;;5088754;28;20989;-75
2022/06/25 04:16:24;;;;;;;8.50;6.90;;;17.10;99.90;;;;;;5069875;28;20040;-76
2022/06/25 04:18:50;;;;;;;8.52;6.85;;;17.20;99.90;;;;;;5088660;28;20078;-77
2022/06/25 04:21:16;;;;;;;7.28;6.45;;;17.20;99.90;;;;;;5089102;28;20036;-77
2022/06/25 04:23:41;;;;;;;7.93;6.20;;;17.20;99.90;;;;;;5089130;28;20099;-77
2022/06/25 04:26:07;;;;;;;7.80;6.03;;;17.30;99.90;;;;;;5089023;28;20508;-77
2022/06/25 04:31:17;;;;;;;7.30;6.22;;;17.30;99.90;;;;;;5088775;28;20541;-78
2022/06/25 04:33:43;;;;;;;6.78;6.00;;;17.30;99.90;;;;;;5089081;28;20044;-76
2022/06/25 04:36:08;;;;;;;8.65;6.68;;;17.40;99.90;;;;;;5089090;28;20383;-77
2022/06/25 04:38:34;;;;;;;6.95;6.07;;;17.40;99.90;;;;;;5088221;28;20044;-77
2022/06/25 04:41:00;;;;;;;6.88;5.53;;;17.50;99.90;;;;;;5081091;28;20109;-77
2022/06/25 04:43:25;;;;;;;6.32;5.72;;;17.50;99.90;;;;;;5088272;28;20137;-76
2022/06/25 04:45:51;;;;;;;7.28;6.18;;;17.50;99.90;;;;;;5088822;28;20399;-77
2022/06/25 04:48:17;;;;;;;7.63;5.75;;;17.60;99.90;;;;;;5088476;28;20040;-76
2022/06/25 04:50:43;;;;;;;7.05;6.07;;;17.60;99.90;;;;;;5070488;28;20047;-78
2022/06/25 04:53:10;;;;;;;7.90;6.15;;;17.60;99.90;;;;;;5070667;28;20545;-76
2022/06/25 04:55:35;;;;;;;7.65;6.20;;;17.70;99.90;;;;;;5088883;28;20143;-77
2022/06/25 04:58:01;;;;;;;7.03;5.97;;;17.70;99.90;;;;;;5088518;28;20471;-77
2022/06/25 05:00:27;;;;;;;8.32;5.68;;;17.80;99.90;;;;;;5088653;28;20044;-78
2022/06/25 05:02:52;;;;;;;7.97;5.60;;;17.90;99.90;;;;;;5088697;28;20075;-77
2022/06/25 05:05:18;;;;;;;6.90;6.07;;;17.90;99.90;;;;;;5088349;28;20385;-77
2022/06/25 05:07:44;;;;;;;7.95;5.70;;;18.00;99.90;;;;;;5088569;28;20602;-77
2022/06/25 05:10:09;;;;;;;7.00;5.63;;;18.00;99.90;;;;;;5088211;28;20492;-78
2022/06/25 05:15:19;;;;;;;6.53;5.65;;;18.10;99.90;;;;;;5087774;28;20048;-76
2022/06/25 05:17:45;;;;;;;6.32;5.60;;;18.10;99.90;;;;;;5083541;28;20058;-77
2022/06/25 05:20:11;;;;;;;6.35;5.53;;;18.20;99.90;;;;;;5092360;28;20047;-77
2022/06/25 05:22:37;;;;;;;5.70;5.05;;;18.20;99.90;;;;;;5092654;28;20051;-78
2022/06/25 05:25:03;;;;;;;6.03;5.38;;;18.30;99.90;;;;;;5087426;28;20130;-78
2022/06/25 05:27:29;;;;;;;6.32;5.50;;;18.30;99.90;;;;;;5095306;28;20120;-77
2022/06/25 05:29:55;;;;;;;6.03;5.43;;;18.40;99.90;;;;;;5092919;28;20044;-77
2022/06/25 05:32:20;;;;;;;5.90;4.82;;;18.40;99.90;;;;;;5091860;28;20117;-78
2022/06/25 05:34:48;;;;;;;5.50;4.88;;;18.50;99.90;;;;;;5092426;28;20075;-78
2022/06/25 05:37:13;;;;;;;5.95;4.80;;;18.50;99.90;;;;;;5092351;28;20052;-79
2022/06/25 05:39:39;;;;;;;6.10;4.85;;;18.60;99.90;;;;;;5074096;28;20048;-77
2022/06/25 05:42:05;;;;;;;6.20;4.63;;;18.60;99.90;;;;;;5091321;28;20437;-76
2022/06/25 05:44:31;;;;;;;6.13;4.55;;;18.70;99.90;;;;;;5091326;28;20051;-78
2022/06/25 05:46:56;;;;;;;5.88;4.80;;;18.70;99.90;;;;;;5091610;28;20173;-76
2022/06/25 05:49:22;;;;;;;6.05;4.90;;;18.80;99.90;;;;;;5073962;28;20048;-77
2022/06/25 05:51:48;;;;;;;5.00;4.38;;;18.80;99.90;;;;;;5091745;28;20385;-77
2022/06/25 05:54:13;;;;;;;6.50;4.93;;;18.90;99.90;;;;;;5091884;28;20123;-77
2022/06/25 05:56:39;;;;;;;4.80;4.25;;;19.00;99.90;;;;;;5091825;28;20051;-78
2022/06/25 05:59:05;;;;;;;6.32;4.70;;;19.00;99.90;;;;;;5091950;28;20118;-78
2022/06/25 06:01:30;;;;;;;6.68;4.38;;;19.10;99.90;;;;;;5091646;28;20376;-77
2022/06/25 06:03:56;;;;;;;5.05;4.22;;;19.20;99.90;;;;;;5091518;28;20048;-77
2022/06/25 06:06:22;;;;;;;6.10;4.68;;;19.30;99.90;;;;;;5091724;28;20127;-77
2022/06/25 06:08:48;;;;;;;5.30;4.00;;;19.30;99.90;;;;;;5091314;28;20048;-76
2022/06/25 06:11:13;;;;;;;6.57;4.78;;;19.40;99.90;;;;;;5073389;28;20083;-77
2022/06/25 06:13:39;;;;;;;5.28;4.32;;;19.40;99.90;;;;;;5090675;28;20463;-77
2022/06/25 06:16:05;;;;;;;5.40;4.18;;;19.50;99.90;;;;;;5082740;28;20047;-77
2022/06/25 06:18:30;;;;;;;4.70;3.95;;;19.50;99.90;;;;;;5091172;28;20131;-76
2022/06/25 06:20:56;;;;;;;5.75;4.55;;;19.50;99.90;;;;;;5090162;28;20044;-77
2022/06/25 06:23:22;;;;;;;5.90;3.88;;;19.50;99.90;;;;;;5073410;28;20044;-78
2022/06/25 06:25:47;;;;;;;4.55;3.78;;;19.60;99.90;;;;;;5056332;28;20055;-77
2022/06/25 06:28:13;;;;;;;5.20;3.58;;;19.70;99.90;;;;;;5090473;28;20088;-78
2022/06/25 06:30:39;;;;;;;4.35;3.63;;;19.70;99.90;;;;;;5073198;28;20151;-77
2022/06/25 06:33:04;;;;;;;5.32;3.47;;;19.80;99.90;;;;;;5090959;28;20051;-76
2022/06/25 06:35:31;;;;;;;4.60;3.67;;;19.80;99.90;;;;;;5090875;28;20080;-78
2022/06/25 06:37:57;;;;;;;6.13;3.65;;;19.80;99.90;;;;;;5089809;28;20040;-78
2022/06/25 06:40:22;;;;;;;3.47;3.05;;;19.80;99.90;;;;;;5090965;28;20412;-78
2022/06/25 06:42:48;;;;;;;6.07;3.70;;;19.90;99.90;;;;;;5090145;28;20048;-77
2022/06/25 06:45:14;;;;;;;4.25;3.05;;;20.00;99.90;;;;;;5073093;28;20116;-77
2022/06/25 06:47:39;;;;;;;4.15;3.45;;;20.00;99.90;;;;;;5090913;28;20036;-77
2022/06/25 06:50:05;;;;;;;5.05;3.30;;;20.10;99.90;;;;;;5072453;28;20423;-76
2022/06/25 06:52:31;;;;;;;3.92;3.42;;;20.20;99.90;;;;;;5090984;28;20501;-78
2022/06/25 06:54:59;;;;;;;3.90;3.22;;;20.20;99.90;;;;;;5090730;28;20044;-67
2022/06/25 06:57:25;;;;;;;5.78;3.03;;;20.20;99.90;;;;;;5072862;28;20044;-67
2022/06/25 06:59:51;;;;;;;5.63;2.72;;;20.30;99.90;;;;;;5090017;28;20124;-67
2022/06/25 07:02:16;;;;;;;3.60;3.28;;;20.30;99.90;;;;;;5090516;28;20470;-68
2022/06/25 07:04:42;;;;;;;4.15;2.53;;;20.40;99.90;;;;;;5083818;28;20055;-67
2022/06/25 07:07:08;;;;;;;4.35;2.60;;;20.40;99.90;;;;;;5090513;28;20054;-67
2022/06/25 07:09:34;;;;;;;4.13;2.60;;;20.60;99.90;;;;;;5090441;28;20052;-67
2022/06/25 07:11:59;;;;;;;5.30;2.80;;;20.70;99.90;;;;;;5090054;28;20040;-67
2022/06/25 07:14:25;;;;;;;3.55;2.70;;;20.80;99.90;;;;;;5082593;28;20052;-68
2022/06/25 07:16:50;;;;;;;3.47;2.47;;;20.90;99.90;;;;;;5083198;28;20047;-67
2022/06/25 07:19:16;;;;;;;4.68;3.00;;;20.90;99.90;;;;;;5090233;28;20048;-67
2022/06/25 07:21:42;;;;;;;5.38;3.08;;;21.00;99.90;;;;;;5090088;28;20119;-67
2022/06/25 07:24:07;;;;;;;3.88;2.75;;;21.00;99.90;;;;;;5083392;28;20125;-67
2022/06/25 07:26:35;;;;;;;3.33;2.70;;;21.00;99.90;;;;;;5083982;28;20043;-67
2022/06/25 07:29:01;;;;;;;4.00;2.70;;;21.00;99.90;;;;;;5083472;28;20481;-67
2022/06/25 07:31:28;;;;;;;3.58;2.42;;;21.10;99.90;;;;;;5081571;28;20028;-67
2022/06/25 07:33:54;;;;;;;3.90;2.20;;;21.10;99.90;;;;;;5082974;28;20572;-67
2022/06/25 07:36:19;;;;;;;4.00;2.55;;;21.10;99.90;;;;;;5083451;28;20143;-68
2022/06/25 07:38:45;;;;;;;4.10;2.60;;;21.20;99.90;;;;;;5064442;28;20047;-67
2022/06/25 07:41:11;;;;;;;3.72;2.50;;;21.30;99.90;;;;;;5082482;28;20062;-67
2022/06/25 07:43:36;;;;;;;3.40;2.45;;;21.30;99.90;;;;;;5083143;28;20048;-68
2022/06/25 07:46:04;;;;;;;3.53;2.67;;;21.20;99.90;;;;;;5083331;28;20044;-67
2022/06/25 07:48:30;;;;;;;4.18;2.25;;;21.20;99.90;;;;;;5083375;28;20074;-67
2022/06/25 07:53:40;;;;;;;4.50;2.90;;;21.20;99.90;;;;;;5082455;28;20186;-67
2022/06/25 07:56:06;;;;;;;6.00;2.40;;;21.30;99.90;;;;;;5083272;28;20122;-67
2022/06/25 07:58:32;;;;;;;4.28;2.20;;;21.40;99.90;;;;;;5083124;28;20411;-67
2022/06/25 08:00:58;;;;;;;4.43;2.40;;;21.50;99.90;;;;;;5082195;28;20058;-67
2022/06/25 08:03:24;;;;;;;4.00;2.22;;;21.60;99.90;;;;;;5082148;28;20048;-67
2022/06/25 08:05:49;;;;;;;3.35;2.22;;;21.50;99.90;;;;;;5083727;28;20381;-66
2022/06/25 08:08:15;;;;;;;2.75;2.17;;;21.60;99.90;;;;;;5085952;28;20693;-68
2022/06/25 08:10:41;;;;;;;3.70;2.15;;;21.60;99.90;;;;;;5083585;28;20053;-66
2022/06/25 08:13:07;;;;;;;2.85;1.77;;;21.70;99.90;;;;;;5072636;28;20040;-68
2022/06/25 08:15:33;;;;;;;3.67;2.17;;;21.70;99.90;;;;;;5079647;28;20059;-68
2022/06/25 08:17:59;;;;;;;3.22;1.90;;;21.70;99.90;;;;;;5080766;28;20048;-68
2022/06/25 08:20:25;;;;;;;3.38;1.98;;;21.80;99.90;;;;;;5079631;28;20028;-67
2022/06/25 08:22:50;;;;;;;2.60;2.00;;;22.00;99.90;;;;;;5078600;28;20039;-67
2022/06/25 08:25:16;;;;;;;3.22;2.47;;;22.10;99.90;;;;;;5081263;28;20048;-68
2022/06/25 08:27:50;;;;;;;4.60;2.30;;;22.20;99.90;;;;;;5059721;28;20044;-67
2022/06/25 08:30:21;;;;;;;4.03;2.00;;;22.10;99.90;;;;;;5080089;28;20051;-66
2022/06/25 08:32:47;;;;;;;4.93;2.58;;;22.10;99.90;;;;;;5080167;28;20051;-68
2022/06/25 08:35:13;;;;;;;3.90;2.60;;;22.20;99.90;;;;;;5078592;28;20040;-69
2022/06/25 08:37:39;;;;;;;3.40;2.60;;;22.30;99.90;;;;;;5079896;28;20105;-67
2022/06/25 08:40:09;;;;;;;4.47;2.78;;;22.40;99.90;;;;;;5079876;28;20393;-67
2022/06/25 08:42:37;;;;;;;4.55;3.15;;;22.50;99.90;;;;;;5078714;28;20044;-68
2022/06/25 08:45:03;;;;;;;5.18;2.50;;;22.40;99.90;;;;;;5080842;28;20076;-67
2022/06/25 08:47:29;;;;;;;3.95;2.35;;;22.20;99.90;;;;;;5080644;28;20040;-68
2022/06/25 08:49:55;;;;;;;3.17;2.67;;;22.20;99.90;;;;;;5070491;28;20055;-67
2022/06/25 08:52:22;;;;;;;5.30;2.60;;;22.30;99.90;;;;;;5070427;28;20068;-68
2022/06/25 08:54:48;;;;;;;3.63;2.40;;;22.50;99.90;;;;;;5070672;28;20044;-68
2022/06/25 08:57:15;;;;;;;4.32;1.83;;;22.60;99.90;;;;;;5052489;28;20053;-68
2022/06/25 08:59:42;;;;;;;5.10;2.15;;;22.70;99.90;;;;;;5070798;28;20408;-68
2022/06/25 09:02:08;;;;;;;3.95;2.65;;;22.60;99.90;;;;;;5070368;28;20059;-68
2022/06/25 09:04:33;;;;;;;4.15;2.05;;;22.50;99.90;;;;;;5035445;28;20138;-69
2022/06/25 09:07:13;;;;;;;2.83;1.80;;;22.40;99.90;;;;;;5063229;28;20048;-67
2022/06/25 09:09:44;;;;;;;4.55;2.10;;;22.30;99.90;;;;;;5090796;28;20397;-68
2022/06/25 09:12:13;;;;;;;4.35;2.08;;;22.30;99.90;;;;;;5090546;28;20056;-67
2022/06/25 09:14:39;;;;;;;2.70;2.00;;;22.40;99.90;;;;;;5089761;28;20052;-66
2022/06/25 09:17:10;;;;;;;3.38;2.10;;;22.40;99.90;;;;;;5089722;28;20514;-67
2022/06/25 09:19:47;;;;;;;5.63;2.15;;;22.40;99.90;;;;;;5090544;28;20051;-69
2022/06/25 09:22:15;;;;;;;3.08;1.90;;;22.50;99.90;;;;;;5085791;28;20048;-69
2022/06/25 09:24:55;;;;;;;3.75;2.25;;;22.60;99.90;;;;;;5073642;28;20463;-68
2022/06/25 09:27:33;;;;;;;6.00;2.25;;;22.70;99.90;;;;;;5090094;28;20059;-68
2022/06/25 09:30:10;;;;;;;4.68;2.63;;;22.60;99.90;;;;;;5090422;28;20052;-68
2022/06/25 09:32:45;;;;;;;4.95;2.35;;;22.60;99.90;;;;;;5089595;28;20048;-68
2022/06/25 09:35:12;;;;;;;;;;;22.70;99.90;;;;;;5090954;28;20058;-67
2022/06/25 09:37:39;;;;;;;3.63;2.22;;;22.70;99.90;;;;;;5072771;28;20014;-69
2022/06/25 09:40:05;;;;;;;4.38;2.20;;;22.80;99.90;;;;;;5090020;28;20048;-69
2022/06/25 09:42:33;;;;;;;2.42;2.00;;;22.70;99.90;;;;;;5090454;28;20053;-69
2022/06/25 09:45:05;;;;;;;4.05;2.13;;;22.70;99.90;;;;;;5089979;28;20135;-70
2022/06/25 09:47:36;;;;;;;2.70;2.00;;;22.60;99.90;;;;;;5090533;28;20054;-69
2022/06/25 09:50:07;;;;;;;3.78;2.25;;;22.70;99.90;;;;;;5090409;28;20048;-68
2022/06/25 09:52:34;;;;;;;3.88;2.13;;;22.60;99.90;;;;;;5090025;28;20513;-68
2022/06/25 09:55:00;;;;;;;2.85;2.08;;;22.60;99.90;;;;;;5089792;28;20488;-68
2022/06/25 09:57:26;;;;;;;6.63;2.58;;;22.40;99.90;;;;;;5072115;28;20055;-68
2022/06/25 09:59:55;;;;;;;3.92;2.15;;;22.40;99.90;;;;;;5090386;28;20484;-67
2022/06/25 10:02:25;;;;;;;3.33;1.95;;;22.50;99.90;;;;;;5090532;28;20086;-68
2022/06/25 10:04:52;;;;;;;4.70;2.25;;;22.50;99.90;;;;;;5093810;28;20446;-68
2022/06/25 10:07:59;;;;;;;3.10;2.22;;;22.60;99.90;;;;;;5093540;28;20043;-68
2022/06/25 10:10:05;;;;;;;3.70;1.90;;;22.60;99.90;;;;;;5092847;28;20062;-68
2022/06/25 10:12:32;;;;;;;4.13;2.50;;;22.60;99.90;;;;;;5093293;28;20047;-68
2022/06/25 10:14:58;;;;;;;3.75;2.22;;;22.70;99.90;;;;;;5092953;28;20087;-68
2022/06/25 10:17:23;;;;;;;4.32;2.05;;;22.70;99.90;;;;;;5093361;28;20082;-68
2022/06/25 10:19:49;;;;;;;4.07;1.90;;;22.80;99.90;;;;;;5093779;28;20058;-68
2022/06/25 10:22:15;;;;;;;3.35;1.88;;;22.80;99.90;;;;;;5093294;28;20044;-68
2022/06/25 10:24:40;;;;;;;2.90;1.80;;;22.80;99.90;;;;;;5092458;28;20054;-68
2022/06/25 10:27:06;;;;;;;2.80;1.60;;;22.90;99.90;;;;;;5093150;28;20082;-67
2022/06/25 10:29:34;;;;;;;3.60;1.50;;;23.00;99.90;;;;;;5092768;28;20058;-68
2022/06/25 10:32:16;;;;;;;3.65;1.50;;;23.00;99.90;;;;;;5092304;28;20161;-68
2022/06/25 10:34:56;;;;;;;3.78;1.60;;;23.20;99.90;;;;;;5074589;28;20100;-68
2022/06/25 10:37:23;;;;;;;3.30;1.80;;;23.20;99.90;;;;;;5093373;28;20062;-68
2022/06/25 10:39:55;;;;;;;3.08;2.20;;;23.10;99.90;;;;;;5093089;28;20450;-69
2022/06/25 10:45:14;;;;;;;3.08;1.90;;;23.20;99.90;;;;;;5092635;28;20392;-69
2022/06/25 10:47:50;;;;;;;3.65;1.73;;;23.10;99.90;;;;;;5092946;28;20058;-69
2022/06/25 10:50:22;;;;;;;3.40;1.60;;;23.00;99.90;;;;;;5093141;28;20134;-69
2022/06/25 10:53:03;;;;;;;2.78;1.48;;;23.10;99.90;;;;;;5092785;28;20051;-69
2022/06/25 10:55:46;;;;;;;2.97;1.48;;;23.30;99.90;;;;;;5092382;28;20393;-69
2022/06/25 10:58:13;;;;;;;2.42;1.33;;;23.60;99.90;;;;;;5093046;28;20107;-69
2022/06/25 11:00:49;;;;;;;3.17;1.30;;;23.80;99.90;;;;;;5092751;28;20098;-69
2022/06/25 11:03:16;;;;;;;2.28;1.10;;;23.90;99.90;;;;;;5092539;28;20119;-69
2022/06/25 11:05:47;;;;;;;3.00;1.50;;;23.90;99.90;;;;;;5092473;28;20056;-70
2022/06/25 11:08:13;;;;;;;4.63;1.10;;;23.90;99.90;;;;;;5092698;28;20043;-69
2022/06/25 11:10:40;;;;;;;2.08;1.10;;;24.00;99.90;;;;;;5092432;28;20052;-70
2022/06/25 11:13:07;;;;;;;1.80;1.00;;;24.00;99.90;;;;;;5091559;28;20052;-68
2022/06/25 11:15:41;;;;;;;2.55;1.30;;;24.00;99.90;;;;;;5092220;28;20071;-69
2022/06/25 11:18:10;;;;;;;2.05;1.35;;;24.00;99.90;;;;;;5092062;28;20048;-68
2022/06/25 11:20:38;;;;;;;2.03;1.38;;;23.90;99.90;;;;;;5092195;28;20494;-69
2022/06/25 11:23:04;;;;;;;3.25;1.30;;;23.70;99.90;;;;;;5091796;28;20047;-68
2022/06/25 11:31:17;;;;;;;4.68;1.25;;;24.00;99.90;;;;;;5092034;28;20097;-69
2022/06/25 11:33:44;;;;;;;2.55;1.40;;;24.10;99.90;;;;;;5091096;28;20047;-70
2022/06/25 11:36:14;;;;;;;2.75;1.00;;;24.20;99.90;;;;;;5070899;28;20167;-71
2022/06/25 11:38:41;;;;;;;3.25;1.15;;;24.30;99.90;;;;;;5091360;28;20043;-71
2022/06/25 11:41:07;;;;;;;3.50;1.00;;;24.40;99.90;;;;;;5086694;28;20075;-69
2022/06/25 11:43:36;;;;;;;2.10;1.00;;;24.40;99.90;;;;;;5052946;28;20095;-69
2022/06/25 11:46:03;;;;;;;1.73;1.00;;;24.30;99.90;;;;;;5053586;28;20508;-68
2022/06/25 11:48:30;;;;;;;2.30;1.10;;;24.20;99.90;;;;;;5071628;28;20127;-69
2022/06/25 11:51:00;;;;;;;1.80;0.90;;;24.10;99.90;;;;;;5071399;28;20087;-70
2022/06/25 11:53:26;;;;;;;2.35;1.13;;;24.10;99.90;;;;;;5052875;28;20101;-70
2022/06/25 11:55:59;;;;;;;2.30;1.10;;;24.10;99.90;;;;;;5087490;28;20036;-69
2022/06/25 11:58:26;;;;;;;2.53;1.25;;;24.20;99.90;;;;;;5091581;28;20059;-70
2022/06/25 12:01:00;;;;;;;2.47;1.13;;;24.30;99.90;;;;;;5091524;28;20048;-70
2022/06/25 12:03:28;;;;;;;2.30;1.10;;;24.30;99.90;;;;;;5091705;28;20122;-69
2022/06/25 12:05:55;;;;;;;1.80;1.10;;;24.30;99.90;;;;;;5091346;28;20131;-69
2022/06/25 12:08:24;;;;;;;3.08;1.10;;;24.50;99.90;;;;;;5091285;28;20051;-70
2022/06/25 12:10:51;;;;;;;3.10;1.10;;;24.50;99.90;;;;;;5072834;28;20056;-69
2022/06/25 12:13:18;;;;;;;3.35;1.10;;;24.60;99.90;;;;;;5090863;28;20113;-70
2022/06/25 12:15:45;;;;;;;3.63;1.23;;;24.70;99.90;;;;;;5090958;28;20428;-69
2022/06/25 12:18:10;;;;;;;1.98;1.10;;;24.70;99.90;;;;;;5091316;28;20105;-69
2022/06/25 12:20:56;;;;;;;1.83;1.00;;;24.70;99.90;;;;;;5091825;28;20048;-70
2022/06/25 12:23:22;;;;;;;2.50;1.10;;;24.80;99.90;;;;;;5090567;28;20150;-70
2022/06/25 12:25:48;;;;;;;3.78;1.10;;;24.80;99.90;;;;;;5090657;28;20447;-69
2022/06/25 12:28:15;;;;;;;2.35;0.95;;;24.70;99.90;;;;;;5091063;28;20052;-69
2022/06/25 12:30:41;;;;;;;2.50;1.00;;;24.60;99.90;;;;;;5090660;28;20070;-69
2022/06/25 12:33:17;;;;;;;1.75;1.00;;;24.50;99.90;;;;;;5073281;28;20075;-69
2022/06/25 12:35:45;;;;;;;2.08;1.00;;;24.40;99.90;;;;;;5091346;28;20100;-70
2022/06/25 12:38:13;;;;;;;1.98;0.90;;;24.30;99.90;;;;;;5090368;28;20409;-68
2022/06/25 12:40:47;;;;;;;1.95;0.90;;;24.10;99.90;;;;;;5090050;28;20193;-70
2022/06/25 12:43:17;;;;;;;2.97;0.98;;;24.10;99.90;;;;;;5089754;28;20503;-70
2022/06/25 12:45:47;;;;;;;2.63;0.90;;;23.90;99.90;;;;;;5090563;28;20499;-68
2022/06/25 12:48:34;;;;;;;2.05;1.00;;;23.90;99.90;;;;;;5090908;28;20108;-70
2022/06/25 12:51:14;;;;;;;2.75;0.90;;;23.80;99.90;;;;;;5072125;28;20151;-68
2022/06/25 12:53:41;;;;;;;1.60;0.82;;;23.70;99.90;;;;;;5090822;28;20059;-68
2022/06/25 12:56:08;;;;;;;3.13;1.08;;;23.70;99.90;;;;;;5090634;28;20625;-67
2022/06/25 12:58:39;;;;;;;1.98;0.88;;;23.70;99.90;;;;;;5072861;28;20062;-70
2022/06/25 13:01:24;;;;;;;1.85;0.98;;;23.70;99.90;;;;;;5090815;28;20412;-69
2022/06/25 13:03:50;;;;;;;2.92;1.05;;;23.80;99.90;;;;;;5090061;28;20385;-68
2022/06/25 13:06:17;;;;;;;3.33;1.15;;;23.90;99.90;;;;;;5090714;28;20044;-69
2022/06/25 13:08:42;;;;;;;1.95;0.95;;;24.00;99.90;;;;;;5090418;28;20085;-68
2022/06/25 13:11:21;;;;;;;1.60;0.90;;;24.20;99.90;;;;;;5090338;28;20048;-68
2022/06/25 13:13:47;;;;;;;1.92;0.90;;;24.30;99.90;;;;;;5089926;28;20048;-68